AirNav   Air Wisconsin pilot careers
 
 320 users online  

41A Reeves Airport
Tallassee, Alabama, USA

GOING TO TALLASSEE?


FAA INFORMATION EFFECTIVE 08 NOVEMBER 2018

Location

FAA Identifier: 41A
Lat/Long: 32-30-53.8000N / 085-52-34.3000W
32-30.896667N / 085-52.571667W
32.5149444 / -85.8761944
(estimated)
Elevation: 326 ft. / 99.4 m (surveyed)
Variation: 02W (1995)
From city: 2 miles SE of TALLASSEE, AL
Time zone: UTC -6 (UTC -5 during Daylight Saving Time)
Zip code: 36078

Airport Operations

Airport use: Open to the public
Activation date: 04/1996
Control tower: no
ARTCC: ATLANTA CENTER
FSS: ANNISTON FLIGHT SERVICE STATION
NOTAMs facility: ANB (NOTAM-D service available)
Attendance: UNATNDD
Wind indicator: lighted
Segmented circle: no
Beacon: white-green (lighted land airport)
Operates sunset to sunrise.

Airport Communications

CTAF: 122.9

Nearby radio navigation aids

VOR radial/distance  VOR name  Freq  Var
TGEr278/10.6TUSKEGEE VOR/DME117.3002E
MGMr049/28.5MONTGOMERY VORTAC112.1003E

Airport Services

Airframe service: NONE

Runway Information

Runway 13/31

Dimensions: 3207 x 75 ft. / 977 x 23 m
Surface: asphalt, in poor condition
CRACKING WITH VEGETATION VISIBLE ON RWY. SECTION OF ASPH MISG R SIDE OF RWY 13. FAR RIGHT PAVING JOINT UNEVEN FROM PAVEMENT END OF RWY 13 TO 100 FT.
Runway edge lights: medium intensity
Runway edge markings: RUNWAY MARKINGS FADED
RUNWAY 13  RUNWAY 31
Latitude: 32-31.074193N32-30.717660N
Longitude: 085-52.801500W085-52.340203W
Elevation: 320.0 ft.326.0 ft.
Traffic pattern: leftleft
Runway heading: 134 magnetic, 132 true314 magnetic, 312 true
Markings: NSTD, in poor conditionNSTD, in poor condition
Obstructions: 21 ft. trees, 472 ft. from runway, 88 ft. right of centerline, 12:1 slope to clear53 ft. tree, 1470 ft. from runway, 99 ft. left of centerline, 23:1 slope to clear

Airport Ownership and Management from official FAA records

Ownership: Publicly-owned
Owner: CITY OF TALLASSEE
3 FREEMAN AVENUE
TALLASSEE, AL 36078
Phone 334-283-6571
Manager: JOHNNY HAMMOCK, MAYOR
CITY OF TALLASSEE, 3 FREEMAN AVE
TALLASSEE, AL 36078
Phone 334-283-6571

Airport Operational Statistics

Aircraft based on the field: 4
Single engine airplanes: 3
Multi engine airplanes: 1
    
Aircraft operations: avg 88/week *
76% transient general aviation
24% local general aviation
* for 12-month period ending 03 June 2019

Instrument Procedures

There are no published instrument procedures at 41A.

Some nearby airports with instrument procedures:

06A - Moton Field Municipal Airport (10 nm E)
08A - Wetumpka Municipal Airport (23 nm W)
KAUO - Auburn University Regional Airport (23 nm E)
KALX - Thomas C Russell Field Airport (24 nm N)
KMXF - Maxwell Air Force Base (26 nm W)
 
Loc | Ops | Rwys | IFR | FBO | Links
Com | Nav | Svcs | Stats | Notes


 
Area around 41A (Reeves Airport)
 
Road maps at: MapQuest Bing Google
 
Aerial photo
WARNING: Photo may not be current or correct
Aerial photo of 41A (Reeves Airport)
Photo by Don Neuberg, Outwardbound Photography
Photo taken 13-Jan-2012
looking northwest.

Do you have a better or more recent aerial photo of Reeves Airport that you would like to share? If so, please send us your photo.

 
Sectional chart

 
Airport distance calculator
Flying to Reeves Airport? Find the distance to fly.

From to 41A

Sunrise and sunset
Times for 18-Nov-2018
 Local
(UTC-6)
 Zulu
(UTC)
Morning civil twilight05:5111:51
Sunrise06:1712:17
Sunset16:4122:41
Evening civil twilight17:0723:07

Current date and time
Zulu (UTC)  18-Nov-2018 08:06:30
Local (UTC-6)  18-Nov-2018 02:06:30
 
METAR
KAUO 
24nm E 
180756Z AUTO 04003KT 10SM CLR 06/06 A3022 RMK AO2 SLP257 T00610056
KALX 
25nm N 
180755Z AUTO 00000KT 10SM CLR 03/03 A3022 RMK AO2 T00300030
KMXF 
26nm W 
180756Z AUTO 00000KT 1/8SM R15/0600V1000FT FG VV000 06/05 A3021 RMK AO2 RAB28E44 SLP233 P0000 T00550051 $
KMGM 
30nm SW 
180753Z AUTO 00000KT 3/4SM BR VV001 04/04 A3022 RMK AO2 SLP233 T00440044 TSNO
K1A9 
33nm W 
180755Z AUTO 00000KT 10SM CLR 04/04 A3022 RMK AO2 T00370037
KTOI 
41nm S 
180753Z AUTO 00000KT 9SM CLR 04/03 A3021 RMK AO2 SLP230 T00390033
KSCD 
45nm NW 
180755Z AUTO 00000KT 5SM BR CLR 03/03 A3023 RMK AO2 T00270027
KLSF 
46nm E 
180756Z AUTO 00000KT 1SM R33/4000VP6000FT BR VV001 04/04 A3020 RMK AO2 VIS 1/2V1 VIS 1/4 RWY15 SLP232 T00430043 $
KCSG 
47nm E 
180751Z AUTO 00000KT 10SM CLR 07/06 A3021 RMK AO2 SLP227 T00720056
TAF
KMXF 
26nm W 
172000Z 1720/1902 35005KT 9999 FEW250 QNH3016INS BECMG 1805/1806 34006KT 9999 FEW250 QNH3020INS TEMPO 1810/1812 3200 BR OVC001 TX19/1720Z TN06/1812Z LAST NO AMDS AFT 1800 NEXT 1812
KMGM 
30nm SW 
180520Z 1806/1906 00000KT P6SM SKC FM180900 00000KT 3SM BR MIFG SCT002 TEMPO 1809/1813 1/2SM FG BKN002 FM181400 VRB02KT P6SM SCT250
NOTAMs
Click for the latest NOTAMs
NOTAMs are issued by the DoD/FAA and will open in a separate window not controlled by AirNav.

 

 
 

Would you like to see your business listed on this page?

 If your business provides an interesting product or service to pilots, flight crews, aircraft, or users of the Reeves Airport, you should consider listing it here.  To start the listing process, click on the button below
 
Add a business
 

Other Pages about Reeves Airport

Update a link
 
Copyright © AirNav, LLC. All rights reserved. Privacy Policy  Contact